Time;durP1;ratioP1;P1;durP2;ratioP2;P2;SDS_P1;SDS_P2;PMS_P1;PMS_P2;Temp;Humidity;BMP_temperature;BMP_pressure;BME280_temperature;BME280_humidity;BME280_pressure;Samples;Min_cycle;Max_cycle;Signal;HPM_P1;HPM_P2
2023/06/10 00:01:48;;;;;;;2.92;1.25;;;20.80;78.60;;;;;;4957939;28;20457;-76
2023/06/10 00:04:14;;;;;;;6.20;1.52;;;20.80;79.30;;;;;;4975245;28;20450;-76
2023/06/10 00:06:40;;;;;;;3.75;1.27;;;20.80;79.20;;;;;;4975801;28;20055;-76
2023/06/10 00:09:13;;;;;;;3.35;1.17;;;20.80;78.90;;;;;;4957731;28;20022;-76
2023/06/10 00:11:39;;;;;;;2.42;0.95;;;20.80;79.00;;;;;;4975208;28;20086;-76
2023/06/10 00:14:05;;;;;;;1.88;0.70;;;20.70;79.20;;;;;;4975008;28;20027;-76
2023/06/10 00:16:30;;;;;;;5.50;1.38;;;20.70;79.20;;;;;;4975026;28;20029;-76
2023/06/10 00:19:01;;;;;;;2.45;1.20;;;20.70;79.60;;;;;;4974961;28;20031;-75
2023/06/10 00:21:27;;;;;;;3.45;1.27;;;20.60;79.60;;;;;;4974967;28;20019;-75
2023/06/10 00:23:55;;;;;;;4.13;1.33;;;20.70;79.40;;;;;;4974900;28;20088;-75
2023/06/10 00:26:24;;;;;;;4.65;1.83;;;20.60;79.60;;;;;;4974882;28;20026;-75
2023/06/10 00:28:49;;;;;;;3.90;1.30;;;20.50;79.40;;;;;;4975293;28;20149;-75
2023/06/10 00:31:17;;;;;;;3.38;1.20;;;20.50;79.60;;;;;;4974709;28;20070;-76
2023/06/10 00:33:42;;;;;;;2.53;0.82;;;20.50;79.90;;;;;;4974772;28;20050;-76
2023/06/10 00:36:08;;;;;;;3.75;0.88;;;20.50;79.90;;;;;;4974658;28;20478;-76
2023/06/10 00:38:34;;;;;;;4.90;1.70;;;20.40;79.50;;;;;;4974499;28;20154;-76
2023/06/10 00:41:00;;;;;;;7.00;1.00;;;20.40;80.00;;;;;;4974677;28;20534;-76
2023/06/10 00:43:25;;;;;;;4.00;1.63;;;20.40;80.00;;;;;;4974730;28;20109;-75
2023/06/10 00:45:52;;;;;;;3.35;0.80;;;20.30;79.90;;;;;;4974635;28;20018;-76
2023/06/10 00:48:18;;;;;;;1.85;0.73;;;20.30;79.80;;;;;;4974354;28;20070;-75
2023/06/10 00:50:45;;;;;;;8.07;1.98;;;20.20;80.00;;;;;;4957087;28;20051;-76
2023/06/10 00:53:11;;;;;;;2.28;1.23;;;20.20;79.80;;;;;;4973812;28;20393;-76
2023/06/10 00:55:37;;;;;;;3.13;1.00;;;20.10;80.20;;;;;;4974908;28;20027;-76
2023/06/10 00:58:04;;;;;;;2.92;1.02;;;20.20;80.30;;;;;;4957024;28;20117;-76
2023/06/10 01:00:29;;;;;;;1.77;0.85;;;20.10;80.30;;;;;;4957101;28;20562;-76
2023/06/10 01:02:55;;;;;;;5.10;1.05;;;20.00;80.00;;;;;;4957094;28;20039;-76
2023/06/10 01:05:22;;;;;;;8.20;1.00;;;20.00;80.00;;;;;;4974376;28;20023;-76
2023/06/10 01:07:55;;;;;;;2.67;1.08;;;20.00;80.10;;;;;;4957067;28;20022;-76
2023/06/10 01:10:33;;;;;;;2.97;1.05;;;19.90;79.50;;;;;;4974370;28;20026;-76
2023/06/10 01:13:06;;;;;;;3.65;1.30;;;19.90;80.10;;;;;;4974340;28;20111;-76
2023/06/10 01:15:35;;;;;;;2.85;1.30;;;19.80;79.20;;;;;;4974349;28;20035;-76
2023/06/10 01:18:03;;;;;;;4.80;1.17;;;19.90;80.20;;;;;;4974310;28;20395;-76
2023/06/10 01:20:31;;;;;;;3.25;0.88;;;19.90;79.40;;;;;;4974291;28;20019;-76
2023/06/10 01:22:59;;;;;;;5.28;1.65;;;19.80;78.80;;;;;;4956841;28;20019;-76
2023/06/10 01:25:29;;;;;;;2.25;1.02;;;19.80;79.50;;;;;;4974211;28;20050;-76
2023/06/10 01:28:07;;;;;;;2.85;0.93;;;19.80;79.60;;;;;;4956875;28;20166;-76
2023/06/10 01:30:50;;;;;;;2.38;1.00;;;19.80;80.00;;;;;;4957576;28;20509;-76
2023/06/10 01:33:25;;;;;;;1.88;1.05;;;19.70;79.70;;;;;;4974072;28;20034;-76
2023/06/10 01:35:51;;;;;;;4.18;0.90;;;19.60;80.00;;;;;;4974725;28;20030;-76
2023/06/10 01:38:20;;;;;;;5.55;1.45;;;19.60;80.00;;;;;;4956738;28;20391;-76
2023/06/10 01:40:48;;;;;;;3.58;1.45;;;19.60;79.40;;;;;;4956697;28;20019;-76
2023/06/10 01:43:13;;;;;;;2.90;1.45;;;19.50;79.90;;;;;;4974016;28;20125;-76
2023/06/10 01:45:39;;;;;;;5.85;1.60;;;19.50;79.50;;;;;;4973980;28;20150;-76
2023/06/10 01:48:05;;;;;;;5.10;2.00;;;19.50;79.60;;;;;;4974015;28;20113;-76
2023/06/10 01:50:30;;;;;;;5.68;1.30;;;19.50;79.60;;;;;;4973908;28;20022;-76
2023/06/10 01:52:57;;;;;;;2.35;0.95;;;19.50;79.70;;;;;;4974508;28;20031;-76
2023/06/10 01:55:23;;;;;;;5.65;1.42;;;19.50;79.80;;;;;;4956489;28;20042;-76
2023/06/10 01:57:49;;;;;;;3.40;1.23;;;19.50;79.90;;;;;;4973886;28;20031;-76
2023/06/10 02:00:15;;;;;;;4.32;1.55;;;19.40;79.80;;;;;;4956510;28;20030;-75
2023/06/10 02:02:41;;;;;;;3.58;1.05;;;19.40;80.00;;;;;;4973890;28;20475;-76
2023/06/10 02:05:07;;;;;;;3.67;1.30;;;19.30;79.20;;;;;;4975384;28;20109;-76
2023/06/10 02:07:32;;;;;;;5.35;1.15;;;19.30;79.80;;;;;;4977425;28;20118;-76
2023/06/10 02:09:58;;;;;;;3.70;1.45;;;19.30;80.10;;;;;;4959957;28;20054;-76
2023/06/10 02:12:23;;;;;;;3.33;1.17;;;19.30;80.20;;;;;;4977284;28;20450;-75
2023/06/10 02:14:49;;;;;;;2.40;1.27;;;19.20;80.10;;;;;;4977294;28;20042;-75
2023/06/10 02:17:14;;;;;;;4.72;2.00;;;19.20;80.40;;;;;;4977241;28;20069;-76
2023/06/10 02:19:42;;;;;;;7.00;1.75;;;19.20;80.20;;;;;;4977199;28;20026;-75
2023/06/10 02:22:09;;;;;;;2.92;1.15;;;19.20;80.80;;;;;;4959830;28;20057;-75
2023/06/10 02:24:36;;;;;;;3.15;1.15;;;19.20;81.10;;;;;;4977067;28;20034;-75
2023/06/10 02:27:03;;;;;;;2.88;1.30;;;19.10;81.40;;;;;;4977098;28;20027;-75
2023/06/10 02:29:29;;;;;;;3.03;1.38;;;19.10;81.30;;;;;;4976933;28;20506;-75
2023/06/10 02:31:54;;;;;;;3.08;0.82;;;19.10;81.40;;;;;;4976888;28;20054;-75
2023/06/10 02:34:20;;;;;;;4.35;1.17;;;19.00;81.90;;;;;;4976928;28;20163;-75
2023/06/10 02:36:46;;;;;;;3.45;0.93;;;19.00;82.10;;;;;;4976872;28;20026;-75
2023/06/10 02:39:11;;;;;;;4.10;1.38;;;19.00;81.90;;;;;;4977086;28;20023;-75
2023/06/10 02:41:37;;;;;;;2.20;0.90;;;19.00;82.60;;;;;;4976856;28;20478;-75
2023/06/10 02:44:03;;;;;;;5.70;1.30;;;18.90;82.70;;;;;;4976710;28;20019;-75
2023/06/10 02:46:29;;;;;;;5.35;1.27;;;18.90;82.80;;;;;;4976750;28;20077;-75
2023/06/10 02:48:54;;;;;;;3.72;1.00;;;18.90;83.20;;;;;;4959261;28;20453;-75
2023/06/10 02:51:20;;;;;;;5.95;0.90;;;18.90;83.40;;;;;;4976583;28;20023;-75
2023/06/10 02:53:46;;;;;;;6.78;1.90;;;18.90;83.80;;;;;;4976669;28;20069;-75
2023/06/10 02:56:13;;;;;;;3.83;0.85;;;18.90;84.10;;;;;;4976264;28;20510;-75
2023/06/10 02:58:39;;;;;;;3.97;0.88;;;18.80;84.30;;;;;;4959116;28;20023;-75
2023/06/10 03:01:04;;;;;;;4.57;0.77;;;18.80;84.80;;;;;;4959155;28;20030;-75
2023/06/10 03:03:30;;;;;;;2.55;1.25;;;18.70;85.00;;;;;;4976392;28;20022;-75
2023/06/10 03:05:56;;;;;;;3.00;0.90;;;18.70;85.10;;;;;;4976337;28;20482;-75
2023/06/10 03:08:22;;;;;;;1.73;0.70;;;18.70;85.30;;;;;;4976791;28;20034;-75
2023/06/10 03:10:47;;;;;;;4.25;1.08;;;18.60;85.60;;;;;;4976317;28;20026;-75
2023/06/10 03:13:14;;;;;;;4.30;1.10;;;18.60;86.70;;;;;;4976603;28;20030;-75
2023/06/10 03:15:40;;;;;;;5.82;1.42;;;18.60;86.70;;;;;;4976481;28;20101;-75
2023/06/10 03:18:06;;;;;;;2.40;0.65;;;18.60;87.00;;;;;;4975672;28;20030;-75
2023/06/10 03:20:37;;;;;;;3.90;1.52;;;18.60;86.90;;;;;;4976550;28;20022;-75
2023/06/10 03:23:05;;;;;;;3.75;1.33;;;18.50;86.80;;;;;;4976041;28;20042;-75
2023/06/10 03:25:30;;;;;;;9.30;1.35;;;18.50;87.80;;;;;;4976562;28;20382;-75
2023/06/10 03:27:56;;;;;;;3.50;1.15;;;18.50;88.20;;;;;;4975922;28;20027;-75
2023/06/10 03:30:21;;;;;;;3.83;1.40;;;18.40;87.70;;;;;;4958760;28;20105;-75
2023/06/10 03:32:48;;;;;;;3.33;1.05;;;18.40;89.10;;;;;;4958052;28;20035;-75
2023/06/10 03:35:14;;;;;;;7.32;0.88;;;18.40;89.20;;;;;;4975765;28;20022;-75
2023/06/10 03:37:40;;;;;;;2.63;0.80;;;18.40;89.50;;;;;;4975822;28;20383;-76
2023/06/10 03:40:08;;;;;;;4.22;1.48;;;18.40;90.00;;;;;;4975629;28;20023;-76
2023/06/10 03:42:34;;;;;;;3.23;1.17;;;18.40;90.00;;;;;;4975686;28;20106;-76
2023/06/10 03:45:00;;;;;;;7.05;1.63;;;18.40;90.20;;;;;;4975518;28;20271;-76
2023/06/10 03:47:26;;;;;;;3.13;1.08;;;18.40;90.30;;;;;;4975573;28;20034;-76
2023/06/10 03:49:52;;;;;;;5.78;1.42;;;18.30;90.40;;;;;;4975380;28;20026;-76
2023/06/10 03:52:18;;;;;;;4.88;1.05;;;18.30;90.60;;;;;;4975583;28;20070;-76
2023/06/10 03:54:44;;;;;;;4.32;0.93;;;;;;;;;;4975383;28;20067;-76
2023/06/10 03:57:10;;;;;;;4.43;1.52;;;18.40;90.70;;;;;;4975329;28;20042;-76
2023/06/10 03:59:36;;;;;;;2.92;1.33;;;18.30;90.90;;;;;;4975269;28;20027;-75
2023/06/10 04:02:01;;;;;;;3.67;0.95;;;18.30;91.20;;;;;;4975363;28;20528;-75
2023/06/10 04:04:27;;;;;;;8.30;1.00;;;;;;;;;;4975272;28;20023;-75
2023/06/10 04:06:53;;;;;;;2.55;0.90;;;18.40;91.30;;;;;;4975181;28;20059;-75
2023/06/10 04:09:18;;;;;;;4.00;1.00;;;18.40;91.40;;;;;;4975093;28;20023;-75
2023/06/10 04:11:44;;;;;;;2.63;1.00;;;18.40;91.90;;;;;;4975109;28;20030;-75
2023/06/10 04:14:09;;;;;;;2.67;0.98;;;18.40;91.90;;;;;;4975496;28;20027;-75
2023/06/10 04:16:35;;;;;;;3.97;1.40;;;18.40;91.90;;;;;;4975071;28;20423;-75
2023/06/10 04:19:01;;;;;;;1.85;0.85;;;18.40;92.00;;;;;;4957597;28;20391;-75
2023/06/10 04:21:27;;;;;;;3.55;1.50;;;18.50;92.20;;;;;;4974846;28;20011;-75
2023/06/10 04:23:53;;;;;;;2.58;1.13;;;18.50;92.30;;;;;;4974932;28;20030;-75
2023/06/10 04:26:19;;;;;;;6.93;1.67;;;18.50;92.50;;;;;;4974970;28;20026;-76
2023/06/10 04:28:44;;;;;;;2.67;0.88;;;18.50;92.40;;;;;;4973891;28;20026;-75
2023/06/10 04:31:10;;;;;;;3.67;1.08;;;18.60;92.40;;;;;;4974801;28;20086;-75
2023/06/10 04:33:36;;;;;;;6.65;1.05;;;18.60;92.60;;;;;;4974736;28;20042;-75
2023/06/10 04:36:01;;;;;;;5.68;1.30;;;18.60;92.80;;;;;;4974651;28;20392;-75
2023/06/10 04:38:27;;;;;;;2.30;0.98;;;18.70;92.70;;;;;;4974663;28;20027;-75
2023/06/10 04:40:53;;;;;;;5.10;1.05;;;18.60;93.00;;;;;;4957324;28;20034;-75
2023/06/10 04:43:18;;;;;;;3.28;1.17;;;18.70;92.90;;;;;;4974647;28;20019;-75
2023/06/10 04:45:47;;;;;;;3.55;1.33;;;18.80;93.00;;;;;;4974672;28;20491;-74
2023/06/10 04:48:13;;;;;;;5.03;1.45;;;18.80;93.10;;;;;;4957278;28;20019;-74
2023/06/10 04:50:38;;;;;;;9.77;1.50;;;18.90;93.30;;;;;;4957175;28;20027;-74
2023/06/10 04:53:04;;;;;;;5.63;1.40;;;18.90;93.20;;;;;;4974448;28;20034;-74
2023/06/10 04:55:30;;;;;;;3.20;1.20;;;18.90;93.20;;;;;;4974319;28;20482;-74
2023/06/10 04:57:57;;;;;;;8.32;1.02;;;19.00;93.40;;;;;;4957074;28;20058;-74
2023/06/10 05:00:22;;;;;;;3.85;1.10;;;19.00;93.40;;;;;;4974400;28;20526;-74
2023/06/10 05:02:49;;;;;;;3.47;1.25;;;19.10;93.60;;;;;;4974442;28;20106;-74
2023/06/10 05:05:16;;;;;;;2.40;1.00;;;19.10;93.30;;;;;;4974366;28;20038;-74
2023/06/10 05:07:42;;;;;;;3.75;1.50;;;19.30;93.60;;;;;;4957059;28;20026;-74
2023/06/10 05:10:08;;;;;;;5.10;1.00;;;19.40;93.50;;;;;;4974233;28;20026;-74
2023/06/10 05:12:34;;;;;;;1.77;0.73;;;19.40;93.50;;;;;;4974283;28;20494;-74
2023/06/10 05:14:59;;;;;;;5.72;1.13;;;19.40;93.50;;;;;;4956865;28;20138;-74
2023/06/10 05:17:25;;;;;;;2.55;1.52;;;19.50;93.60;;;;;;4974193;28;20030;-74
2023/06/10 05:19:51;;;;;;;2.10;1.38;;;19.70;93.20;;;;;;4974262;28;20059;-74
2023/06/10 05:22:17;;;;;;;4.13;0.65;;;19.70;93.40;;;;;;4974193;28;20030;-74
2023/06/10 05:24:43;;;;;;;3.97;1.33;;;19.70;93.40;;;;;;4956741;28;20023;-74
2023/06/10 05:27:10;;;;;;;3.30;1.30;;;19.80;93.50;;;;;;4974176;28;20423;-74
2023/06/10 05:29:35;;;;;;;3.05;1.13;;;19.90;93.30;;;;;;4974068;28;20065;-74
2023/06/10 05:32:03;;;;;;;6.22;1.80;;;19.90;93.30;;;;;;4974193;28;20035;-74
2023/06/10 05:34:31;;;;;;;5.05;1.52;;;20.00;93.10;;;;;;4974029;28;20386;-74
2023/06/10 05:36:57;;;;;;;;;;;20.10;93.20;;;;;;4957104;28;20073;-74
2023/06/10 05:39:23;;;;;;;2.95;0.93;;;20.20;93.00;;;;;;4974518;28;20365;-74
2023/06/10 05:41:48;;;;;;;6.72;1.92;;;20.30;92.80;;;;;;4977987;28;20023;-74
2023/06/10 05:44:14;;;;;;;3.42;1.33;;;20.30;92.70;;;;;;4977964;28;20493;-74
2023/06/10 05:46:39;;;;;;;3.92;1.00;;;20.40;92.70;;;;;;4977875;28;20058;-74
2023/06/10 05:49:05;;;;;;;5.28;1.30;;;20.50;92.40;;;;;;4977717;28;20085;-74
2023/06/10 05:51:31;;;;;;;3.90;1.13;;;20.60;92.40;;;;;;4977782;28;20081;-74
2023/06/10 05:53:56;;;;;;;4.80;1.15;;;20.60;92.10;;;;;;4960630;28;20113;-74
2023/06/10 05:56:22;;;;;;;2.80;0.95;;;20.70;92.60;;;;;;4960100;28;20493;-74
2023/06/10 05:58:48;;;;;;;10.70;1.63;;;20.80;92.20;;;;;;4978077;28;20387;-74
2023/06/10 06:01:14;;;;;;;1.88;1.00;;;20.90;92.10;;;;;;4978087;28;20023;-74
2023/06/10 06:03:39;;;;;;;5.88;1.70;;;20.90;91.80;;;;;;4977467;28;20031;-74
2023/06/10 06:06:05;;;;;;;3.28;1.42;;;21.00;92.00;;;;;;4977410;28;20081;-74
2023/06/10 06:08:31;;;;;;;2.90;0.80;;;21.10;91.80;;;;;;4960057;28;20031;-74
2023/06/10 06:10:56;;;;;;;2.97;0.95;;;21.20;92.00;;;;;;4977249;28;20094;-74
2023/06/10 06:13:22;;;;;;;2.85;0.80;;;21.20;91.80;;;;;;4977504;28;20051;-73
2023/06/10 06:15:48;;;;;;;2.88;0.93;;;21.30;91.40;;;;;;4959869;28;20019;-74
2023/06/10 06:18:13;;;;;;;5.68;1.52;;;21.50;91.70;;;;;;4977335;28;20065;-74
2023/06/10 06:20:39;;;;;;;5.10;1.00;;;21.60;91.30;;;;;;4978141;28;20095;-74
2023/06/10 06:23:04;;;;;;;4.93;1.38;;;21.70;91.00;;;;;;4959725;28;20038;-74
2023/06/10 06:25:30;;;;;;;3.22;1.08;;;21.80;90.60;;;;;;4977145;28;20490;-74
2023/06/10 06:27:55;;;;;;;3.58;1.40;;;21.90;90.50;;;;;;4977089;28;20394;-74
2023/06/10 06:30:21;;;;;;;2.08;1.00;;;22.00;90.80;;;;;;4976986;28;20027;-74
2023/06/10 06:32:47;;;;;;;2.22;0.77;;;22.10;89.60;;;;;;4977031;28;20109;-74
2023/06/10 06:35:12;;;;;;;4.07;1.00;;;22.10;90.00;;;;;;4976856;28;20126;-74
2023/06/10 06:37:38;;;;;;;2.97;1.40;;;22.10;90.00;;;;;;4959380;28;20549;-74
2023/06/10 06:40:04;;;;;;;3.80;1.05;;;22.20;89.90;;;;;;4976439;28;20034;-74
2023/06/10 06:42:29;;;;;;;2.42;0.80;;;22.30;90.00;;;;;;4959465;28;20069;-74
2023/06/10 06:44:55;;;;;;;3.22;1.10;;;22.40;90.10;;;;;;4959361;28;20121;-74
2023/06/10 06:47:21;;;;;;;3.65;1.08;;;22.60;89.30;;;;;;4976838;28;20030;-74
2023/06/10 06:49:47;;;;;;;4.90;1.92;;;22.60;88.10;;;;;;4976482;28;20023;-74
2023/06/10 06:52:13;;;;;;;3.22;0.95;;;22.70;87.70;;;;;;4975402;28;20031;-73
2023/06/10 06:54:39;;;;;;;6.40;1.27;;;22.80;87.80;;;;;;4976502;28;20022;-74
2023/06/10 06:57:05;;;;;;;2.70;1.05;;;22.90;86.80;;;;;;4976406;28;20474;-73
2023/06/10 06:59:31;;;;;;;1.92;0.80;;;23.00;86.80;;;;;;4958996;28;20029;-74
2023/06/10 07:01:56;;;;;;;2.97;1.30;;;23.10;87.10;;;;;;4976265;28;20026;-75
2023/06/10 07:04:22;;;;;;;2.40;0.90;;;23.20;86.30;;;;;;4975376;28;20491;-76
2023/06/10 07:06:48;;;;;;;4.28;0.77;;;23.20;85.50;;;;;;4976872;28;20459;-74
2023/06/10 07:09:14;;;;;;;4.10;1.27;;;23.40;84.90;;;;;;4976222;28;20030;-74
2023/06/10 07:11:39;;;;;;;3.92;1.20;;;23.60;84.40;;;;;;4976832;28;20042;-74
2023/06/10 07:14:06;;;;;;;5.50;1.52;;;23.70;84.20;;;;;;4958992;28;20073;-74
2023/06/10 07:16:31;;;;;;;6.25;1.63;;;23.80;81.70;;;;;;4976333;28;20129;-75
2023/06/10 07:18:57;;;;;;;3.95;1.30;;;23.80;82.20;;;;;;4976192;28;20063;-74
2023/06/10 07:21:23;;;;;;;3.33;1.05;;;23.80;82.50;;;;;;4976356;28;20035;-74
2023/06/10 07:23:49;;;;;;;2.78;1.02;;;24.00;82.30;;;;;;4975980;28;20098;-74
2023/06/10 07:26:16;;;;;;;2.15;0.70;;;24.10;81.00;;;;;;4975964;28;20027;-74
2023/06/10 07:28:42;;;;;;;2.10;0.70;;;;;;;;;;4975805;28;20394;-74
2023/06/10 07:31:08;;;;;;;3.03;0.70;;;24.40;79.50;;;;;;4976073;28;20034;-74
2023/06/10 07:33:34;;;;;;;3.40;0.90;;;24.50;79.70;;;;;;4958490;28;20114;-74
2023/06/10 07:36:00;;;;;;;2.10;1.00;;;24.60;79.10;;;;;;4975997;28;20023;-74
2023/06/10 07:38:26;;;;;;;3.22;0.88;;;24.90;77.30;;;;;;4975482;28;20030;-74
2023/06/10 07:40:52;;;;;;;2.53;0.95;;;25.00;77.00;;;;;;4975968;28;20022;-74
2023/06/10 07:43:17;;;;;;;4.05;1.23;;;25.00;77.50;;;;;;4975915;28;20023;-74
2023/06/10 07:45:43;;;;;;;3.72;1.02;;;25.10;77.30;;;;;;4958135;28;20450;-74
2023/06/10 07:48:09;;;;;;;4.38;0.95;;;25.20;77.00;;;;;;4975381;28;20027;-73
2023/06/10 07:50:35;;;;;;;2.33;0.98;;;25.30;77.30;;;;;;4975299;28;20339;-74
2023/06/10 07:53:01;;;;;;;3.47;0.75;;;25.50;74.80;;;;;;4975458;28;20506;-73
2023/06/10 07:55:26;;;;;;;5.65;1.00;;;25.50;75.40;;;;;;4975580;28;20037;-73
2023/06/10 07:57:53;;;;;;;4.15;1.42;;;25.50;75.50;;;;;;4974606;28;20039;-73
2023/06/10 08:00:19;;;;;;;2.40;0.90;;;25.60;73.90;;;;;;4956685;28;20026;-73
2023/06/10 08:02:44;;;;;;;5.65;0.80;;;25.70;75.00;;;;;;4975010;28;20131;-73
2023/06/10 08:05:10;;;;;;;1.73;0.73;;;25.80;73.70;;;;;;4957919;28;20050;-73
2023/06/10 08:07:36;;;;;;;1.63;0.73;;;25.90;73.80;;;;;;4974572;28;20120;-73
2023/06/10 08:10:03;;;;;;;3.88;0.80;;;25.90;73.30;;;;;;4975184;28;20469;-73
2023/06/10 08:12:29;;;;;;;4.53;0.82;;;26.00;73.00;;;;;;4957657;28;20026;-73
2023/06/10 08:14:55;;;;;;;3.17;1.02;;;26.10;72.90;;;;;;4975129;28;20447;-73
2023/06/10 08:17:21;;;;;;;2.42;0.77;;;26.20;73.10;;;;;;4974603;28;20029;-73
2023/06/10 08:19:46;;;;;;;3.30;0.77;;;26.40;71.90;;;;;;4974861;28;20041;-73
2023/06/10 08:22:12;;;;;;;3.60;0.70;;;26.40;72.50;;;;;;4975003;28;20031;-73
2023/06/10 08:24:38;;;;;;;2.53;1.10;;;26.60;71.80;;;;;;4975313;28;20101;-74
2023/06/10 08:27:05;;;;;;;1.50;0.70;;;26.80;69.40;;;;;;4974790;28;20023;-74
2023/06/10 08:29:31;;;;;;;3.45;1.10;;;26.70;69.80;;;;;;4974807;28;20189;-74
2023/06/10 08:31:57;;;;;;;3.00;0.50;;;26.80;69.40;;;;;;4974487;28;20072;-74
2023/06/10 08:34:23;;;;;;;2.75;0.40;;;27.00;69.90;;;;;;4957299;28;20022;-74
2023/06/10 08:36:53;;;;;;;2.60;0.80;;;27.10;70.00;;;;;;4975304;28;20031;-74
2023/06/10 08:39:19;;;;;;;2.63;0.85;;;27.30;68.90;;;;;;4974608;28;20078;-74
2023/06/10 08:42:00;;;;;;;6.80;1.10;;;27.30;68.70;;;;;;4957314;28;20029;-74
2023/06/10 08:44:30;;;;;;;3.67;1.00;;;27.40;67.60;;;;;;4974753;28;20153;-74
2023/06/10 08:47:05;;;;;;;4.25;0.80;;;27.40;67.40;;;;;;4974532;28;20030;-74
2023/06/10 08:49:33;;;;;;;2.95;0.70;;;27.50;67.60;;;;;;4974734;28;20023;-75
2023/06/10 08:52:01;;;;;;;3.60;1.05;;;27.60;67.50;;;;;;4957328;28;20023;-74
2023/06/10 08:54:32;;;;;;;1.27;0.50;;;27.70;66.40;;;;;;4957486;28;20019;-74
2023/06/10 08:57:00;;;;;;;4.55;1.15;;;27.80;66.90;;;;;;4974285;28;20545;-74
2023/06/10 08:59:25;;;;;;;5.75;1.00;;;27.90;67.20;;;;;;4974517;28;20097;-74
2023/06/10 09:01:53;;;;;;;4.65;1.15;;;28.00;65.40;;;;;;4956750;28;20115;-74
2023/06/10 09:04:19;;;;;;;4.17;1.30;;;28.10;65.60;;;;;;4974848;28;20027;-74
2023/06/10 09:06:46;;;;;;;3.30;1.23;;;28.20;65.40;;;;;;4957062;28;20550;-74
2023/06/10 09:09:13;;;;;;;2.60;0.70;;;28.30;63.50;;;;;;4974183;28;20394;-74
2023/06/10 09:11:40;;;;;;;2.00;0.88;;;28.30;63.10;;;;;;4957014;28;20037;-74
2023/06/10 09:14:06;;;;;;;2.67;0.80;;;28.40;64.10;;;;;;4974275;28;20031;-74
2023/06/10 09:16:31;;;;;;;10.13;1.17;;;28.50;62.60;;;;;;4978346;28;20027;-74
2023/06/10 09:18:58;;;;;;;1.80;1.30;;;28.50;62.30;;;;;;4961006;28;20029;-74
2023/06/10 09:21:25;;;;;;;2.88;0.80;;;28.60;62.60;;;;;;4961459;28;20015;-74
2023/06/10 09:23:51;;;;;;;2.22;0.80;;;28.70;61.40;;;;;;4978182;28;20057;-74
2023/06/10 09:26:17;;;;;;;4.53;1.10;;;28.80;61.10;;;;;;4978602;28;20031;-73
2023/06/10 09:28:52;;;;;;;1.95;0.70;;;28.90;59.90;;;;;;4978353;28;20029;-73
2023/06/10 09:31:21;;;;;;;1.58;0.57;;;28.90;60.20;;;;;;4978128;28;20080;-73
2023/06/10 09:33:47;;;;;;;1.38;0.63;;;29.00;60.30;;;;;;4960636;28;20026;-73
2023/06/10 09:36:22;;;;;;;5.97;1.00;;;29.10;60.20;;;;;;4960429;28;20514;-73
2023/06/10 09:38:50;;;;;;;1.55;0.70;;;29.20;58.70;;;;;;4977816;28;20054;-73
2023/06/10 09:41:16;;;;;;;1.98;0.50;;;29.30;58.80;;;;;;4960679;28;20496;-73
2023/06/10 09:43:46;;;;;;;4.97;0.65;;;29.40;58.40;;;;;;4977980;28;20019;-73
2023/06/10 09:46:18;;;;;;;6.15;0.93;;;29.40;57.90;;;;;;4960415;28;20042;-73
2023/06/10 09:48:47;;;;;;;3.38;0.80;;;29.60;57.10;;;;;;4960564;28;20494;-74
2023/06/10 09:51:14;;;;;;;1.55;0.60;;;29.70;58.00;;;;;;4960337;28;20529;-74
2023/06/10 09:53:39;;;;;;;2.72;0.57;;;29.80;57.30;;;;;;4977676;28;20086;-74
2023/06/10 09:56:05;;;;;;;5.50;1.00;;;29.90;57.10;;;;;;4977444;28;20042;-74
2023/06/10 09:58:43;;;;;;;1.80;0.50;;;30.10;54.40;;;;;;4977854;28;20023;-74
2023/06/10 10:01:10;;;;;;;1.03;0.50;;;30.00;55.00;;;;;;4977650;28;20027;-73
2023/06/10 10:03:50;;;;;;;1.65;0.40;;;30.20;56.20;;;;;;4977519;28;20436;-74
2023/06/10 10:06:18;;;;;;;2.80;0.88;;;30.30;55.00;;;;;;4977371;28;20031;-76
2023/06/10 10:08:45;;;;;;;5.85;0.82;;;30.40;53.40;;;;;;4977664;28;20031;-75
2023/06/10 10:11:11;;;;;;;5.13;0.70;;;30.40;53.70;;;;;;4977485;28;20471;-73
2023/06/10 10:13:40;;;;;;;6.00;0.80;;;30.60;53.80;;;;;;4977313;28;20031;-74
2023/06/10 10:16:15;;;;;;;10.00;1.05;;;30.70;53.90;;;;;;4976940;28;20042;-74
2023/06/10 10:18:44;;;;;;;1.70;0.40;;;30.90;53.30;;;;;;5031722;22;20030;-73
2023/06/10 10:21:13;;;;;;;7.65;1.00;;;30.90;53.90;;;;;;5016135;28;20478;-73
2023/06/10 10:24:01;;;;;;;6.68;0.80;;;31.10;53.50;;;;;;4998565;28;20493;-75
2023/06/10 10:26:27;;;;;;;2.45;0.65;;;31.20;52.40;;;;;;5016095;28;20030;-73
2023/06/10 10:29:14;;;;;;;1.17;0.45;;;31.30;52.00;;;;;;5020592;28;20072;-73
2023/06/10 10:31:44;;;;;;;0.90;0.32;;;31.50;51.70;;;;;;5035918;28;20083;-74
2023/06/10 10:34:15;;;;;;;1.83;0.32;;;31.70;51.00;;;;;;5035605;28;20548;-75
2023/06/10 10:36:41;;;;;;;3.13;0.45;;;31.90;49.60;;;;;;5035281;28;20113;-75
2023/06/10 10:39:07;;;;;;;2.00;0.60;;;32.00;49.00;;;;;;5017917;28;20080;-76
2023/06/10 10:41:33;;;;;;;2.15;0.70;;;32.00;49.50;;;;;;5017640;28;20479;-76
2023/06/10 10:44:00;;;;;;;3.45;1.10;;;32.20;49.70;;;;;;5035722;28;20026;-74
2023/06/10 10:46:26;;;;;;;1.05;0.50;;;32.20;49.80;;;;;;5017832;28;20025;-74
2023/06/10 10:48:57;;;;;;;1.77;0.60;;;32.20;48.60;;;;;;5035338;28;20571;-74
2023/06/10 10:51:24;;;;;;;4.53;0.75;;;32.30;48.60;;;;;;5035490;28;20033;-74
2023/06/10 10:54:12;;;;;;;1.30;0.47;;;32.50;48.40;;;;;;5035166;28;20025;-74
2023/06/10 10:56:38;;;;;;;2.92;0.40;;;32.50;46.80;;;;;;5035180;28;20029;-74
2023/06/10 10:59:07;;;;;;;1.45;0.60;;;32.50;47.20;;;;;;5035200;28;20453;-74
2023/06/10 11:01:45;;;;;;;2.05;0.38;;;32.70;47.70;;;;;;5035343;28;20075;-74
2023/06/10 11:04:12;;;;;;;3.53;0.75;;;32.80;46.40;;;;;;5035066;28;20013;-74
2023/06/10 11:06:37;;;;;;;1.85;0.98;;;32.90;47.00;;;;;;5035142;28;20075;-74
2023/06/10 11:09:27;;;;;;;2.35;0.35;;;33.00;46.50;;;;;;5035212;28;20469;-74
2023/06/10 11:11:56;;;;;;;1.92;0.25;;;33.20;47.70;;;;;;5017115;28;20021;-74
2023/06/10 11:14:29;;;;;;;4.13;0.52;;;33.40;46.90;;;;;;5034972;28;20120;-74
2023/06/10 11:16:57;;;;;;;2.05;0.57;;;33.60;46.10;;;;;;5034801;28;20076;-74
2023/06/10 11:19:38;;;;;;;2.10;0.43;;;33.80;46.00;;;;;;5016871;28;20033;-74
2023/06/10 11:22:06;;;;;;;2.38;0.40;;;33.70;45.40;;;;;;5016887;28;20094;-74
2023/06/10 11:24:32;;;;;;;3.80;0.90;;;33.80;45.80;;;;;;5034980;28;20099;-74
2023/06/10 11:27:18;;;;;;;1.65;0.50;;;33.80;45.50;;;;;;5034615;28;20014;-74
2023/06/10 11:30:03;;;;;;;1.67;0.70;;;33.90;44.40;;;;;;5034438;28;20042;-74
2023/06/10 11:32:34;;;;;;;1.45;0.30;;;34.00;44.40;;;;;;5016831;28;20021;-74
2023/06/10 11:35:03;;;;;;;1.90;0.82;;;34.10;44.10;;;;;;5034317;28;20087;-74
2023/06/10 11:37:28;;;;;;;3.40;0.55;;;34.10;44.10;;;;;;5034203;28;20013;-74
2023/06/10 11:39:55;;;;;;;1.00;0.80;;;34.20;43.70;;;;;;5034294;28;20534;-74
2023/06/10 11:42:21;;;;;;;1.40;0.30;;;34.20;44.00;;;;;;5034508;28;20469;-74
2023/06/10 11:44:51;;;;;;;1.27;0.50;;;34.20;43.60;;;;;;5034429;28;20022;-74
2023/06/10 11:47:17;;;;;;;1.42;0.28;;;34.40;43.60;;;;;;5034188;28;20453;-74
2023/06/10 11:49:43;;;;;;;3.88;0.80;;;34.70;44.00;;;;;;5034328;28;20025;-74
2023/06/10 11:52:08;;;;;;;2.00;0.82;;;34.70;43.10;;;;;;5034137;28;20079;-74
2023/06/10 11:54:34;;;;;;;2.65;0.68;;;34.80;43.60;;;;;;5034009;28;20024;-74
2023/06/10 11:57:00;;;;;;;0.73;0.70;;;35.10;42.80;;;;;;5034074;28;20032;-74
2023/06/10 11:59:30;;;;;;;2.78;0.50;;;34.90;43.00;;;;;;5034153;28;20014;-74
2023/06/10 12:01:56;;;;;;;1.42;0.77;;;35.10;43.20;;;;;;5016251;28;20469;-74
2023/06/10 12:04:22;;;;;;;1.70;0.80;;;35.30;42.20;;;;;;5034001;28;20026;-74
2023/06/10 12:06:49;;;;;;;4.03;1.23;;;35.50;43.00;;;;;;5034255;28;20499;-74
2023/06/10 12:09:32;;;;;;;1.42;0.63;;;35.70;42.90;;;;;;5016305;28;20091;-73
2023/06/10 12:12:03;;;;;;;2.78;1.02;;;36.00;42.20;;;;;;5034149;28;20048;-73
2023/06/10 12:14:54;;;;;;;1.00;0.60;;;36.20;41.20;;;;;;5033936;28;20045;-73
2023/06/10 12:17:31;;;;;;;2.67;0.40;;;36.30;41.40;;;;;;5034300;28;20477;-73
2023/06/10 12:19:57;;;;;;;;;;;36.50;40.40;;;;;;5016366;28;20029;-73
2023/06/10 12:22:24;;;;;;;1.25;0.50;;;36.70;40.80;;;;;;5033802;28;19999;-73
2023/06/10 12:25:01;;;;;;;1.38;0.60;;;36.80;40.70;;;;;;5033872;28;20083;-73
2023/06/10 12:27:29;;;;;;;0.85;0.50;;;37.10;41.50;;;;;;5033716;28;20083;-73
2023/06/10 12:29:55;;;;;;;1.15;0.73;;;37.10;39.30;;;;;;5015813;28;20013;-73
2023/06/10 12:32:27;;;;;;;2.45;0.70;;;37.10;39.80;;;;;;5033548;28;20025;-73
2023/06/10 12:35:04;;;;;;;1.58;0.82;;;37.10;39.80;;;;;;5015965;28;20037;-73
2023/06/10 12:37:29;;;;;;;1.17;0.45;;;37.20;39.80;;;;;;5033602;28;20079;-73
2023/06/10 12:39:56;;;;;;;1.00;0.38;;;37.20;39.00;;;;;;5033734;28;20409;-74
2023/06/10 12:42:23;;;;;;;2.35;0.68;;;37.20;38.80;;;;;;5033421;28;20079;-73
2023/06/10 12:44:53;;;;;;;1.02;0.57;;;37.00;39.10;;;;;;5015860;28;20021;-73
2023/06/10 12:47:19;;;;;;;3.05;0.90;;;37.10;39.00;;;;;;5033494;28;20021;-74
2023/06/10 12:49:44;;;;;;;0.80;0.30;;;37.20;38.80;;;;;;5030713;28;20036;-73